Time;durP1;ratioP1;P1;durP2;ratioP2;P2;SDS_P1;SDS_P2;PMS_P1;PMS_P2;Temp;Humidity;BMP_temperature;BMP_pressure;BME280_temperature;BME280_humidity;BME280_pressure;Samples;Min_cycle;Max_cycle;Signal;HPM_P1;HPM_P2
2021/12/30 00:04:55;;;;;;;72.53;32.03;;;;;;;2.66;100.00;100068.27;5144452;56;1143676;-71
2021/12/30 00:10:02;;;;;;;90.50;31.03;;;;;;;2.65;100.00;100083.09;5173273;56;1139106;-72
2021/12/30 00:15:10;;;;;;;59.63;26.40;;;;;;;2.59;100.00;100085.20;5230792;55;1137423;-70
2021/12/30 00:20:16;;;;;;;57.60;24.23;;;;;;;2.58;100.00;100081.73;5230581;55;1141142;-71
2021/12/30 00:25:22;;;;;;;87.62;32.58;;;;;;;2.58;100.00;100075.67;5242649;55;1143142;-72
2021/12/30 00:30:28;;;;;;;140.70;54.60;;;;;;;2.58;100.00;100084.81;5242546;55;1143784;-72
2021/12/30 00:35:35;;;;;;;184.03;29.87;;;;;;;2.59;100.00;100082.59;5236212;55;1145240;-71
2021/12/30 00:40:42;;;;;;;121.80;25.23;;;;;;;2.57;100.00;100093.11;5232048;55;1143542;-71
2021/12/30 00:45:49;;;;;;;110.53;34.03;;;;;;;2.53;100.00;100094.17;5231858;55;1143282;-71
2021/12/30 00:50:55;;;;;;;45.43;21.60;;;;;;;2.53;100.00;100092.88;5231940;55;1143453;-72
2021/12/30 00:56:02;;;;;;;64.73;28.23;;;;;;;2.52;100.00;100098.16;5232882;55;1141348;-71
2021/12/30 01:01:08;;;;;;;65.70;26.70;;;;;;;2.53;100.00;100108.53;5232472;55;1141264;-71
2021/12/30 01:06:13;;;;;;;64.33;28.20;;;;;;;2.56;100.00;100092.72;5232195;55;1143359;-72
2021/12/30 01:11:22;;;;;;;156.73;45.90;;;;;;;2.63;100.00;100075.80;5180395;56;1143266;-71
2021/12/30 01:16:30;;;;;;;87.82;29.45;;;;;;;2.68;100.00;100067.27;5145802;56;1143668;-70
2021/12/30 01:21:36;;;;;;;47.43;23.00;;;;;;;2.66;100.00;100079.56;5137878;56;1141323;-71
2021/12/30 01:26:42;;;;;;;95.43;47.27;;;;;;;2.66;100.00;100073.50;5131995;56;1141038;-72
2021/12/30 01:31:48;;;;;;;52.10;25.07;;;;;;;2.67;100.00;100074.72;5131939;56;1143425;-72
2021/12/30 01:36:55;;;;;;;61.97;27.97;;;;;;;2.70;100.00;100075.03;5132558;57;1143500;-72
2021/12/30 01:42:02;;;;;;;40.83;19.27;;;;;;;2.69;100.00;100079.87;5132558;56;1141139;-72
2021/12/30 01:47:08;;;;;;;46.33;18.82;;;;;;;2.67;100.00;100096.91;5132547;56;1141565;-72
2021/12/30 01:52:15;;;;;;;80.17;32.30;;;;;;;2.63;100.00;100119.33;5133052;56;1141322;-71
2021/12/30 01:57:21;;;;;;;60.30;23.23;;;;;;;2.61;100.00;100132.46;5132958;56;1141171;-72
2021/12/30 02:02:27;;;;;;;48.13;20.27;;;;;;;2.62;100.00;100146.36;5132977;56;1141428;-70
2021/12/30 02:07:34;;;;;;;51.92;22.42;;;;;;;2.60;100.00;100141.21;5133416;56;1141309;-71
2021/12/30 02:12:42;;;;;;;50.70;23.17;;;;;;;2.61;100.00;100136.84;5207168;55;1141129;-72
2021/12/30 02:17:51;;;;;;;45.53;21.53;;;;;;;2.66;100.00;100120.48;5224112;55;1143567;-71
2021/12/30 02:22:57;;;;;;;51.00;22.53;;;;;;;2.68;100.00;100112.97;5252189;56;1143423;-71
2021/12/30 02:28:12;;;;;;;42.93;19.70;;;;;;;2.71;100.00;100131.09;5268172;56;1143171;-72
2021/12/30 02:33:18;;;;;;;36.97;16.67;;;;;;;2.66;100.00;100134.84;5268389;56;1141180;-71
2021/12/30 02:38:25;;;;;;;54.33;23.47;;;;;;;2.65;100.00;100137.07;5268107;55;1141139;-72
2021/12/30 02:43:33;;;;;;;52.67;22.53;;;;;;;2.66;100.00;100140.91;5278893;56;1141326;-70
2021/12/30 02:48:41;;;;;;;38.33;17.27;;;;;;;2.63;100.00;100148.89;5273905;56;1141385;-72
2021/12/30 02:53:47;;;;;;;39.73;19.87;;;;;;;2.66;100.00;100138.30;5268432;55;1143590;-72
2021/12/30 02:58:53;;;;;;;43.08;20.45;;;;;;;2.67;100.00;100133.92;5268339;56;1143124;-72
2021/12/30 03:04:05;;;;;;;47.27;21.57;;;;;;;2.69;100.00;100138.61;5270911;55;1143209;-72
2021/12/30 03:09:11;;;;;;;40.53;18.40;;;;;;;2.70;100.00;100127.25;5258539;55;1138933;-72
2021/12/30 03:14:16;;;;;;;53.70;22.43;;;;;;;2.67;100.00;100137.38;5211063;56;1138993;-71
2021/12/30 03:19:22;;;;;;;49.07;23.03;;;;;;;2.68;100.00;100136.92;5210800;56;1139014;-71
2021/12/30 03:24:29;;;;;;;47.90;22.23;;;;;;;2.70;100.00;100129.86;5210906;56;1141817;-71
2021/12/30 03:29:34;;;;;;;53.00;22.27;;;;;;;2.67;100.00;100125.63;5210898;56;1141228;-71
2021/12/30 03:34:40;;;;;;;73.93;26.33;;;;;;;2.79;100.00;100152.41;5210799;56;1141128;-71
2021/12/30 03:39:48;;;;;;;107.10;44.17;;;;;;;2.81;100.00;100153.64;5211873;56;1139044;-71
2021/12/30 03:44:56;;;;;;;111.60;35.00;;;;;;;2.83;100.00;100160.94;5212175;56;1141132;-71
2021/12/30 03:50:01;;;;;;;103.50;39.30;;;;;;;2.96;100.00;100159.37;5211919;56;1143226;-71
2021/12/30 03:55:08;;;;;;;91.97;22.67;;;;;;;2.96;100.00;100159.37;5211287;56;1143226;-72
2021/12/30 04:00:15;;;;;;;70.53;17.40;;;;;;;3.00;100.00;100162.69;5214161;56;1139274;-71
2021/12/30 04:05:23;;;;;;;43.20;17.70;;;;;;;3.01;100.00;100155.23;5221789;56;1139168;-70
2021/12/30 04:10:29;;;;;;;41.47;15.27;;;;;;;3.04;100.00;100161.15;5259740;55;1139283;-71
2021/12/30 04:15:35;;;;;;;54.40;17.03;;;;;;;3.00;100.00;100154.39;5310368;55;1141333;-71
2021/12/30 04:20:41;;;;;;;55.27;16.70;;;;;;;2.97;100.00;100155.84;5310343;55;1139165;-72
2021/12/30 04:25:47;;;;;;;41.17;16.43;;;;;;;2.93;100.00;100164.76;5301224;55;1139119;-71
2021/12/30 04:30:52;;;;;;;56.23;24.80;;;;;;;2.90;100.00;100187.14;5224883;55;1137380;-71
2021/12/30 04:35:59;;;;;;;131.67;42.63;;;;;;;2.83;100.00;100204.88;5276362;55;1137185;-71
2021/12/30 04:41:07;;;;;;;92.07;27.90;;;;;;;2.85;100.00;100215.71;5237284;55;1145226;-71
2021/12/30 04:46:13;;;;;;;94.52;21.52;;;;;;;2.92;100.00;100205.31;5265720;55;1143176;-72
2021/12/30 04:51:20;;;;;;;55.65;20.55;;;;;;;2.91;100.00;100195.80;5219655;55;1141025;-72
2021/12/30 04:56:25;;;;;;;43.73;16.80;;;;;;;2.88;100.00;100192.91;5241728;55;1141274;-71
2021/12/30 05:01:31;;;;;;;38.77;16.83;;;;;;;2.91;100.00;100185.34;5228607;56;1141066;-71
2021/12/30 05:06:37;;;;;;;118.37;47.53;;;;;;;2.97;100.00;100201.56;5228513;55;1143172;-72
2021/12/30 05:11:43;;;;;;;86.17;33.07;;;;;;;3.01;100.00;100192.66;5225364;56;1145356;-71
2021/12/30 05:16:49;;;;;;;136.70;46.00;;;;;;;3.03;100.00;100193.42;5213296;56;1141103;-72
2021/12/30 05:21:54;;;;;;;94.33;38.10;;;;;;;3.00;100.00;100183.58;5138297;57;1143470;-73
2021/12/30 05:26:59;;;;;;;42.37;18.50;;;;;;;3.03;100.00;100193.42;5136816;57;1141193;-73
2021/12/30 05:32:05;;;;;;;39.57;17.83;;;;;;;3.01;100.00;100187.89;5129266;57;1143247;-72
2021/12/30 05:37:11;;;;;;;100.23;37.73;;;;;;;3.01;100.00;100185.27;5138411;57;1143217;-72
2021/12/30 05:42:17;;;;;;;63.20;25.40;;;;;;;3.04;100.00;100186.42;5138506;57;1145341;-72
2021/12/30 05:47:24;;;;;;;150.00;56.83;;;;;;;3.03;100.00;100175.59;5138440;57;1141171;-72
2021/12/30 05:52:31;;;;;;;45.97;18.97;;;;;;;3.04;100.00;100184.66;5138533;57;1143241;-72
2021/12/30 05:57:37;;;;;;;41.00;18.20;;;;;;;2.99;100.00;100188.42;5138370;57;1141257;-71
2021/12/30 06:02:44;;;;;;;34.60;17.03;;;;;;;2.94;100.00;100194.34;5163771;56;1141211;-72
2021/12/30 06:07:50;;;;;;;36.80;17.53;;;;;;;2.94;100.00;100187.80;5164664;56;1143421;-71
2021/12/30 06:12:55;;;;;;;39.67;18.77;;;;;;;2.96;100.00;100197.72;5177514;56;1143246;-72
2021/12/30 06:18:01;;;;;;;35.77;17.20;;;;;;;2.97;100.00;100198.95;5142807;57;1143240;-72
2021/12/30 06:23:08;;;;;;;25.43;13.72;;;;;;;3.03;100.00;100209.09;5142587;57;1143197;-72
2021/12/30 06:28:13;;;;;;;34.10;15.70;;;;;;;3.05;100.00;100209.86;5142856;57;1143209;-72
2021/12/30 06:33:19;;;;;;;76.77;32.97;;;;;;;3.05;100.00;100207.25;5142673;57;1143189;-71
2021/12/30 06:38:25;;;;;;;49.13;24.47;;;;;;;3.10;100.00;100203.92;5142778;57;1143242;-73
2021/12/30 06:43:31;;;;;;;36.70;17.03;;;;;;;3.15;100.00;100200.61;5140011;57;1143249;-72
2021/12/30 06:48:44;;;;;;;35.63;18.17;;;;;;;3.18;100.00;100220.06;5131878;57;1143274;-72
2021/12/30 06:53:47;;;;;;;40.00;19.00;;;;;;;3.21;100.00;100215.60;5131556;57;1143121;-72
2021/12/30 06:58:53;;;;;;;60.50;30.93;;;;;;;3.22;100.00;100223.33;5132980;57;1141340;-71
2021/12/30 07:03:59;;;;;;;54.20;28.53;;;;;;;3.22;100.00;100222.48;5133063;57;1141214;-72
2021/12/30 07:09:06;;;;;;;66.27;35.63;;;;;;;3.23;100.00;100220.26;5145789;56;1141182;-71
2021/12/30 07:14:12;;;;;;;42.83;25.87;;;;;;;3.26;100.00;100223.56;5218761;56;1143210;-71
2021/12/30 07:19:18;;;;;;;43.80;22.80;;;;;;;3.32;100.00;100231.56;5218721;56;1143241;-72
2021/12/30 07:24:23;;;;;;;43.70;23.00;;;;;;;3.34;100.00;100233.17;5218590;56;1143055;-72
2021/12/30 07:29:29;;;;;;;51.87;26.70;;;;;;;3.35;100.00;100237.48;5218593;56;1143267;-71
2021/12/30 07:34:35;;;;;;;35.20;18.77;;;;;;;3.37;100.00;100250.44;5218617;56;1143339;-72
2021/12/30 07:39:42;;;;;;;37.23;19.67;;;;;;;3.36;100.00;100243.06;5218626;56;1143169;-71
2021/12/30 07:44:48;;;;;;;35.43;16.97;;;;;;;3.32;100.00;100253.31;5217977;56;1141229;-72
2021/12/30 07:49:54;;;;;;;43.23;19.00;;;;;;;3.31;100.00;100262.08;5218936;56;1141221;-72
2021/12/30 07:55:00;;;;;;;38.57;21.70;;;;;;;3.31;100.00;100266.45;5217958;56;1143201;-71
2021/12/30 08:00:10;;;;;;;44.37;23.50;;;;;;;3.32;100.00;100269.00;5218326;56;1141159;-71
2021/12/30 08:05:21;;;;;;;64.03;31.45;;;;;;;3.37;100.00;100277.88;5218573;56;1141063;-71
2021/12/30 08:10:29;;;;;;;74.45;47.40;;;;;;;3.42;100.00;100282.42;5186213;56;1141220;-72
2021/12/30 08:15:35;;;;;;;77.77;43.57;;;;;;;3.42;100.00;100273.27;5142636;57;1138985;-70
2021/12/30 08:20:41;;;;;;;130.78;55.60;;;;;;;3.41;100.00;100282.03;5142473;57;1139025;-71
2021/12/30 08:25:51;;;;;;;141.10;59.33;;;;;;;3.39;100.00;100271.66;5142470;57;1141135;-71
2021/12/30 08:30:57;;;;;;;136.30;60.23;;;;;;;3.41;100.00;100265.89;5142340;57;1143451;-71
2021/12/30 08:36:04;;;;;;;127.47;61.07;;;;;;;3.45;100.00;100267.89;5142462;57;1143808;-71
2021/12/30 08:41:10;;;;;;;288.00;156.52;;;;;;;3.48;100.00;100262.50;5142220;57;1143331;-72
2021/12/30 08:46:16;;;;;;;209.73;119.17;;;;;;;3.44;100.00;100267.05;5167157;56;1143162;-71
2021/12/30 08:51:22;;;;;;;286.73;115.97;;;;;;;3.44;100.00;100284.50;5184267;56;1143513;-72
2021/12/30 08:56:27;;;;;;;278.50;129.07;;;;;;;3.45;100.00;100280.50;5187895;56;1145369;-71
2021/12/30 09:01:33;;;;;;;206.70;90.43;;;;;;;3.48;100.00;100278.19;5208862;56;1145361;-71
2021/12/30 09:06:39;;;;;;;147.83;60.53;;;;;;;3.51;100.00;100284.08;5220611;56;1143235;-72
2021/12/30 09:11:45;;;;;;;62.07;32.23;;;;;;;3.53;100.00;100270.47;5167506;56;1143237;-72
2021/12/30 09:16:52;;;;;;;59.73;33.77;;;;;;;3.56;100.00;100273.39;5143276;56;1138960;-71
2021/12/30 09:21:58;;;;;;;99.03;54.53;;;;;;;3.53;100.00;100269.62;5166281;56;1136987;-72
2021/12/30 09:27:04;;;;;;;169.03;127.23;;;;;;;3.53;100.00;100256.09;5197127;56;1141130;-72
2021/12/30 09:32:11;;;;;;;278.93;175.57;;;;;;;3.57;100.00;100262.01;5143529;57;1147344;-71
2021/12/30 09:37:17;;;;;;;267.97;147.60;;;;;;;3.60;100.00;100269.70;5154747;55;1147351;-71
2021/12/30 09:42:23;;;;;;;56.97;33.80;;;;;;;3.61;100.00;100264.85;5182135;56;1145263;-70
2021/12/30 09:47:29;;;;;;;46.47;24.80;;;;;;;3.65;100.00;100265.08;5146203;56;1141332;-71
2021/12/30 09:52:36;;;;;;;29.83;17.73;;;;;;;3.67;100.00;100265.81;5143200;56;1141344;-72
2021/12/30 09:57:41;;;;;;;57.80;26.52;;;;;;;3.69;100.00;100277.05;5142975;56;1141139;-71
2021/12/30 10:02:48;;;;;;;57.62;23.77;;;;;;;3.71;100.00;100271.73;5142917;56;1141068;-72
2021/12/30 10:08:18;;;;;;;28.73;15.70;;;;;;;3.72;100.00;100267.73;5143011;57;1141121;-71
2021/12/30 10:13:29;;;;;;;24.00;11.53;;;;;;;3.72;100.00;100261.66;5143076;57;1141223;-71
2021/12/30 10:18:54;;;;;;;41.40;15.73;;;;;;;3.70;100.00;100265.66;5142451;56;1141176;-71
2021/12/30 10:24:06;;;;;;;76.77;36.77;;;;;;;3.74;100.00;100265.88;5132120;56;1141217;-70
2021/12/30 10:29:13;;;;;;;40.13;23.93;;;;;;;3.75;100.00;100257.11;5136708;57;1141164;-71
2021/12/30 10:34:21;;;;;;;39.53;22.90;;;;;;;3.75;100.00;100259.73;5145445;56;1142710;-70
2021/12/30 10:39:34;;;;;;;83.47;46.20;;;;;;;3.78;100.00;100250.87;5143623;56;1143208;-72
2021/12/30 10:44:50;;;;;;;;;;;;;;;3.77;100.00;100246.11;5200179;55;1141110;-70
2021/12/30 10:50:09;;;;;;;28.17;14.47;;;;;;;3.80;100.00;100257.72;5234369;55;976554;-70
2021/12/30 10:55:16;;;;;;;46.80;24.37;;;;;;;3.82;100.00;100272.00;5232374;55;1141153;-73
2021/12/30 11:00:36;;;;;;;33.13;18.80;;;;;;;3.80;100.00;100276.50;5202825;56;1141583;-71
2021/12/30 11:05:41;;;;;;;38.80;20.77;;;;;;;3.81;100.00;100281.65;5214270;55;1141235;-72
2021/12/30 11:10:47;;;;;;;129.00;50.30;;;;;;;3.83;100.00;100279.77;5195291;56;1141162;-71
2021/12/30 11:16:02;;;;;;;111.73;58.57;;;;;;;3.87;100.00;100283.07;5186779;56;1143446;-72
2021/12/30 11:21:08;;;;;;;42.65;24.18;;;;;;;3.94;100.00;100281.83;5185304;55;1143273;-70
2021/12/30 11:26:14;;;;;;;54.40;21.97;;;;;;;3.98;100.00;100292.95;5190739;56;1141113;-71
2021/12/30 11:31:27;;;;;;;19.33;11.10;;;;;;;4.02;100.00;100300.56;5187523;55;1141201;-71
2021/12/30 11:37:02;;;;;;;25.37;11.83;;;;;;;4.08;100.00;100295.47;5236351;55;1139097;-80
2021/12/30 11:42:24;;;;;;;25.80;12.50;;;;;;;4.16;100.00;100304.58;5240098;55;1139179;-78
2021/12/30 11:47:38;;;;;;;24.43;11.37;;;;;;;4.24;100.00;100310.25;5218815;56;1143296;-81
2021/12/30 11:53:00;;;;;;;25.40;12.07;;;;;;;4.32;100.00;100312.44;5156482;56;1141080;-81
2021/12/30 11:58:36;;;;;;;28.37;15.50;;;;;;;4.42;100.00;100304.47;5156376;56;1141391;-81
2021/12/30 12:03:56;;;;;;;57.83;23.33;;;;;;;4.50;100.00;100318.43;5156268;56;1141080;-78
2021/12/30 12:09:11;;;;;;;20.17;11.20;;;;;;;4.56;100.00;100318.10;5167865;56;1141129;-79
2021/12/30 12:14:39;;;;;;;44.30;20.13;;;;;;;4.60;100.00;100320.44;5226804;56;1143217;-81
2021/12/30 12:19:49;;;;;;;57.60;16.40;;;;;;;4.66;100.00;100310.56;5225743;56;1141189;-77
2021/12/30 12:25:27;;;;;;;58.77;20.40;;;;;;;4.72;100.00;100295.81;5213298;56;1141328;-78
2021/12/30 12:30:38;;;;;;;46.60;16.23;;;;;;;4.80;100.00;100292.28;5213939;56;1141610;-79
2021/12/30 12:35:43;;;;;;;26.27;12.85;;;;;;;4.88;100.00;100290.08;5215483;56;1143378;-79
2021/12/30 12:40:54;;;;;;;40.17;17.90;;;;;;;4.97;100.00;100274.27;5230896;55;1143378;-81
2021/12/30 12:46:04;;;;;;;26.73;11.50;;;;;;;5.01;100.00;100258.29;5243365;55;1143599;-78
2021/12/30 12:51:28;;;;;;;46.17;19.70;;;;;;;5.05;100.00;100263.70;5243058;55;1141094;-78
2021/12/30 12:56:40;;;;;;;37.53;15.13;;;;;;;5.03;100.00;100276.55;5242991;55;1141148;-78
2021/12/30 13:01:46;;;;;;;44.00;18.40;;;;;;;5.07;100.00;100286.74;5242864;55;1141298;-80
2021/12/30 13:06:52;;;;;;;37.63;17.90;;;;;;;5.07;100.00;100285.44;5242980;55;1141136;-79
2021/12/30 13:12:03;;;;;;;36.97;18.77;;;;;;;5.10;100.00;100276.08;5180035;55;1141133;-80
2021/12/30 13:17:13;;;;;;;34.57;16.93;;;;;;;5.16;100.00;100265.25;5157082;56;1141374;-77
2021/12/30 13:22:23;;;;;;;20.33;12.27;;;;;;;5.19;100.00;100264.23;5234702;55;1141171;-77
2021/12/30 13:27:39;;;;;;;24.10;11.60;;;;;;;5.20;100.00;100271.13;5235500;55;1141178;-80
2021/12/30 13:32:49;;;;;;;32.87;15.33;;;;;;;5.17;100.00;100272.18;5223739;55;1138751;-80
2021/12/30 13:38:06;;;;;;;33.03;15.23;;;;;;;5.17;100.00;100275.27;5204417;55;1143563;-78
2021/12/30 13:43:19;;;;;;;27.70;14.23;;;;;;;5.16;100.00;100274.42;5218434;55;1143427;-79
2021/12/30 13:48:27;;;;;;;;;;;;;;;5.12;100.00;100286.02;5199348;55;1143278;-78
2021/12/30 13:53:36;;;;;;;48.13;18.63;;;;;;;5.13;100.00;100277.69;5179278;56;976509;-79
2021/12/30 13:58:45;;;;;;;30.57;15.77;;;;;;;5.13;100.00;100296.88;5175970;55;1141131;-78
2021/12/30 14:03:55;;;;;;;75.07;23.33;;;;;;;5.13;100.00;100298.66;5215374;55;1143510;-78
2021/12/30 14:09:17;;;;;;;97.93;28.33;;;;;;;5.15;100.00;100297.64;5174703;56;1143630;-79
2021/12/30 14:14:35;;;;;;;85.20;31.37;;;;;;;5.21;100.00;100301.66;5223648;55;1143669;-80
2021/12/30 14:19:41;;;;;;;183.33;100.00;;;;;;;5.26;100.00;100306.17;5228949;55;1143195;-80
2021/12/30 14:24:47;;;;;;;189.10;74.90;;;;;;;5.28;100.00;100303.84;5227604;56;1147335;-78
2021/12/30 14:29:53;;;;;;;138.50;79.33;;;;;;;5.30;100.00;100295.42;5229019;55;1145459;-79
2021/12/30 14:35:05;;;;;;;138.87;45.30;;;;;;;5.33;100.00;100315.37;5229038;54;1145247;-78
2021/12/30 14:40:17;;;;;;;93.47;30.60;;;;;;;5.33;100.00;100317.16;5228893;55;1145838;-80
2021/12/30 14:45:23;;;;;;;72.33;30.17;;;;;;;5.32;100.00;100298.42;5227080;56;1143163;-78
2021/12/30 14:50:33;;;;;;;53.30;22.90;;;;;;;5.33;100.00;100301.42;5217738;55;1143569;-78
2021/12/30 14:55:40;;;;;;;49.17;20.73;;;;;;;5.33;100.00;100311.91;5142990;56;1143151;-78
2021/12/30 15:00:49;;;;;;;103.87;37.07;;;;;;;5.34;100.00;100313.14;5137019;57;1143304;-78
2021/12/30 15:05:56;;;;;;;34.83;18.53;;;;;;;5.36;100.00;100295.97;5142424;57;1145444;-80
2021/12/30 15:11:02;;;;;;;46.83;24.57;;;;;;;5.39;100.00;100286.62;5187798;56;1143327;-79
2021/12/30 15:16:08;;;;;;;46.10;26.93;;;;;;;5.43;100.00;100305.17;5273076;55;1143186;-80
2021/12/30 15:21:13;;;;;;;42.17;21.47;;;;;;;5.43;100.00;100288.97;5308378;55;1143478;-79
2021/12/30 15:26:22;;;;;;;44.20;24.23;;;;;;;5.45;100.00;100279.70;5308382;55;1143308;-78
2021/12/30 15:31:28;;;;;;;55.17;27.83;;;;;;;5.49;100.00;100287.30;5175201;55;1143234;-80
2021/12/30 15:36:39;;;;;;;59.70;28.90;;;;;;;5.52;100.00;100290.19;5192143;55;1143623;-78
2021/12/30 15:41:51;;;;;;;49.87;25.10;;;;;;;5.57;100.00;100294.70;5108413;56;21172;-81
2021/12/30 15:47:17;;;;;;;55.52;28.87;;;;;;;5.62;100.00;100300.52;5110924;57;21105;-79
2021/12/30 15:52:34;;;;;;;73.33;39.13;;;;;;;5.66;100.00;100298.06;5104522;57;21207;-78
2021/12/30 15:57:40;;;;;;;82.53;50.12;;;;;;;5.71;100.00;100305.20;5051061;57;1136871;-80
2021/12/30 16:02:46;;;;;;;50.03;27.87;;;;;;;5.76;100.00;100307.55;5056061;57;1141261;-81
2021/12/30 16:07:54;;;;;;;63.30;39.57;;;;;;;5.79;100.00;100285.06;5055276;57;1141547;-79
2021/12/30 16:13:00;;;;;;;142.17;72.13;;;;;;;5.84;100.00;100286.91;5059826;57;1141346;-78
2021/12/30 16:18:06;;;;;;;171.57;94.83;;;;;;;5.89;100.00;100302.80;5085123;57;1143240;-78
2021/12/30 16:23:12;;;;;;;63.60;33.40;;;;;;;5.92;100.00;100297.83;5071788;57;1143135;-78
2021/12/30 16:28:17;;;;;;;96.73;51.13;;;;;;;5.95;100.00;100305.05;5066430;57;1139047;-81
2021/12/30 16:33:23;;;;;;;93.00;47.13;;;;;;;5.98;100.00;100298.74;5090898;57;1139020;-80
2021/12/30 16:38:31;;;;;;;82.27;36.65;;;;;;;6.03;100.00;100295.84;5065905;57;1179043;-81
2021/12/30 16:43:40;;;;;;;58.15;24.57;;;;;;;6.06;100.00;100296.50;5028945;57;1143230;-80
2021/12/30 16:48:46;;;;;;;85.27;35.33;;;;;;;6.08;100.00;100278.88;5046758;58;1143352;-78
2021/12/30 16:53:51;;;;;;;76.77;35.27;;;;;;;6.13;100.00;100281.19;4987223;58;1143107;-82
2021/12/30 16:58:57;;;;;;;51.97;27.13;;;;;;;6.19;100.00;100271.63;4977484;58;1143376;-82
2021/12/30 17:04:06;;;;;;;92.63;37.33;;;;;;;6.23;100.00;100250.34;4986682;58;1143167;-78
2021/12/30 17:09:13;;;;;;;68.37;31.77;;;;;;;6.25;100.00;100256.33;4997761;57;1143166;-79
2021/12/30 17:14:20;;;;;;;71.10;34.50;;;;;;;6.29;100.00;100264.36;4973804;58;1143118;-80
2021/12/30 17:19:26;;;;;;;126.57;47.43;;;;;;;6.31;100.00;100257.23;4970692;58;1143167;-80
2021/12/30 17:24:32;;;;;;;94.37;44.50;;;;;;;6.35;100.00;100255.27;4899509;59;1145443;-80
2021/12/30 17:29:37;;;;;;;68.63;33.67;;;;;;;6.39;100.00;100269.05;5051657;57;1143338;-80
2021/12/30 17:34:44;;;;;;;87.37;44.00;;;;;;;6.40;100.00;100272.89;5059585;57;1143250;-79
2021/12/30 17:39:53;;;;;;;76.13;42.07;;;;;;;6.43;100.00;100268.73;5059409;57;1143243;-78
2021/12/30 17:44:58;;;;;;;46.80;27.90;;;;;;;6.47;100.00;100283.83;4974754;58;1143530;-77
2021/12/30 17:50:05;;;;;;;68.00;36.77;;;;;;;6.50;100.00;100278.39;5007514;57;1143907;-77
2021/12/30 17:55:11;;;;;;;84.32;42.43;;;;;;;6.51;100.00;100270.87;5009347;58;1143747;-84
2021/12/30 18:00:17;;;;;;;76.80;43.90;;;;;;;6.57;100.00;100267.36;5001886;58;1143698;-80
2021/12/30 18:05:24;;;;;;;61.30;32.73;;;;;;;6.59;100.00;100273.84;5007358;58;1143295;-78
2021/12/30 18:10:31;;;;;;;49.00;28.43;;;;;;;6.62;100.00;100276.27;5011806;58;1143241;-84
2021/12/30 18:15:42;;;;;;;43.07;23.93;;;;;;;6.66;100.00;100268.57;5001598;58;1143246;-84
2021/12/30 18:20:48;;;;;;;45.20;22.83;;;;;;;6.70;100.00;100267.44;5009213;58;1143254;-77
2021/12/30 18:25:55;;;;;;;108.37;65.97;;;;;;;6.73;100.00;100267.68;4964355;58;1143425;-81
2021/12/30 18:31:02;;;;;;;107.70;60.17;;;;;;;6.79;100.00;100263.34;4940868;59;1145334;-79
2021/12/30 18:36:08;;;;;;;79.37;49.10;;;;;;;6.82;100.00;100262.68;4909434;59;1145178;-79
2021/12/30 18:41:14;;;;;;;234.50;111.30;;;;;;;6.88;100.00;100258.78;4966290;57;1143187;-83
2021/12/30 18:46:20;;;;;;;56.80;24.87;;;;;;;6.91;100.00;100254.64;5070492;57;1147386;-79
2021/12/30 18:51:26;;;;;;;68.80;30.07;;;;;;;6.94;100.00;100251.81;5031002;57;1143202;-79
2021/12/30 18:56:32;;;;;;;80.70;30.40;;;;;;;6.98;100.00;100266.45;5040663;58;1143463;-82
2021/12/30 19:01:39;;;;;;;54.17;23.00;;;;;;;7.01;100.00;100262.30;5043114;57;1143473;-80
2021/12/30 19:06:44;;;;;;;55.43;26.67;;;;;;;7.03;100.00;100263.02;4900588;59;1143486;-79
2021/12/30 19:11:53;;;;;;;61.43;23.80;;;;;;;7.06;100.00;100255.77;5118044;56;1143667;-82
2021/12/30 19:17:00;;;;;;;74.00;25.97;;;;;;;7.10;100.00;100256.89;5109959;57;1143152;-77
2021/12/30 19:22:06;;;;;;;41.80;20.37;;;;;;;7.14;100.00;100261.00;5048238;57;1143237;-79
2021/12/30 19:27:12;;;;;;;102.17;57.93;;;;;;;7.17;100.00;100260.33;5048391;57;1143185;-78
2021/12/30 19:32:18;;;;;;;58.33;28.60;;;;;;;7.20;100.00;100264.52;5048219;57;1145250;-78
2021/12/30 19:37:24;;;;;;;50.33;20.10;;;;;;;7.22;100.00;100261.31;5048162;57;1143234;-76
2021/12/30 19:42:32;;;;;;;247.47;151.93;;;;;;;7.25;100.00;100272.48;5047299;57;1141462;-78
2021/12/30 19:47:38;;;;;;;61.10;31.00;;;;;;;7.25;100.00;100276.42;5036246;57;1145296;-80
2021/12/30 19:52:46;;;;;;;213.23;48.50;;;;;;;7.27;100.00;100271.91;5036551;57;1141409;-77
2021/12/30 19:57:53;;;;;;;97.97;26.93;;;;;;;7.28;100.00;100284.11;5036793;57;1143467;-77
2021/12/30 20:03:01;;;;;;;66.93;29.47;;;;;;;7.31;100.00;100278.65;5036335;57;1141619;-78
2021/12/30 20:08:09;;;;;;;31.73;14.87;;;;;;;7.34;100.00;100281.05;5088768;57;1141408;-75
2021/12/30 20:13:16;;;;;;;37.60;19.60;;;;;;;7.36;100.00;100277.84;5071026;57;1141525;-80
2021/12/30 20:18:22;;;;;;;32.08;14.68;;;;;;;7.36;100.00;100263.38;5070649;57;1140969;-77
2021/12/30 20:23:28;;;;;;;54.00;22.60;;;;;;;7.42;100.00;100267.38;5084701;57;1141194;-79
2021/12/30 20:28:35;;;;;;;47.43;21.37;;;;;;;7.45;100.00;100282.97;5083465;57;1141186;-78
2021/12/30 20:33:44;;;;;;;59.07;28.10;;;;;;;7.47;100.00;100281.08;5090877;57;1141052;-80
2021/12/30 20:38:50;;;;;;;44.47;24.97;;;;;;;7.50;100.00;100282.16;5078008;57;1141180;-84
2021/12/30 20:43:56;;;;;;;56.98;27.67;;;;;;;7.54;100.00;100282.80;5051473;57;1141220;-80
2021/12/30 20:49:02;;;;;;;47.47;36.50;;;;;;;7.55;100.00;100287.95;5046420;57;1141078;-78
2021/12/30 20:54:09;;;;;;;89.03;34.73;;;;;;;7.59;100.00;100288.59;5047016;57;1141391;-78
2021/12/30 20:59:18;;;;;;;58.17;21.17;;;;;;;7.61;100.00;100295.44;5074114;57;1138926;-78
2021/12/30 21:04:24;;;;;;;31.30;13.50;;;;;;;7.63;100.00;100299.29;5070454;57;1143561;-78
2021/12/30 21:09:31;;;;;;;47.45;19.82;;;;;;;7.66;100.00;100301.20;5085451;56;1143596;-78
2021/12/30 21:14:37;;;;;;;41.50;14.77;;;;;;;7.71;100.00;100310.11;5215544;56;1143480;-80
2021/12/30 21:19:43;;;;;;;41.97;14.60;;;;;;;7.74;100.00;100311.23;5215726;56;1143529;-81
2021/12/30 21:24:49;;;;;;;31.03;14.20;;;;;;;7.80;100.00;100324.42;5215509;56;1143473;-78
2021/12/30 21:29:55;;;;;;;21.53;9.37;;;;;;;7.82;100.00;100329.11;5215371;56;1142936;-79
2021/12/30 21:35:05;;;;;;;24.20;8.87;;;;;;;7.86;100.00;100320.91;5215467;56;1141157;-80
2021/12/30 21:40:12;;;;;;;16.70;9.67;;;;;;;7.89;100.00;100322.02;5215472;56;1141428;-72
2021/12/30 21:45:19;;;;;;;7.17;4.67;;;;;;;7.94;100.00;100322.55;5143175;56;1141423;-73
2021/12/30 21:50:25;;;;;;;5.80;4.70;;;;;;;7.97;100.00;100327.57;5120003;57;1139084;-73
2021/12/30 21:55:33;;;;;;;5.13;4.63;;;;;;;8.09;100.00;100322.78;5115778;57;1139071;-80
2021/12/30 22:00:40;;;;;;;13.60;7.20;;;;;;;8.20;100.00;100329.08;5077087;57;1139228;-73
2021/12/30 22:05:47;;;;;;;13.47;7.40;;;;;;;8.26;100.00;100323.35;5041070;57;1141094;-75
2021/12/30 22:10:57;;;;;;;6.23;5.63;;;;;;;8.33;100.00;100327.28;5112681;56;1141060;-72
2021/12/30 22:16:05;;;;;;;6.93;6.23;;;;;;;8.41;100.00;100337.62;5048848;57;1139376;-78
2021/12/30 22:21:11;;;;;;;9.07;6.80;;;;;;;8.45;100.00;100331.67;5048626;57;1139039;-77
2021/12/30 22:26:17;;;;;;;9.83;6.83;;;;;;;8.52;100.00;100330.77;5048865;57;1139152;-78
2021/12/30 22:31:23;;;;;;;9.17;7.03;;;;;;;8.56;100.00;100333.05;5048717;57;1138991;-76
2021/12/30 22:36:29;;;;;;;8.03;6.63;;;;;;;8.66;100.00;100334.56;5048688;57;1139004;-71
2021/12/30 22:41:35;;;;;;;8.70;7.33;;;;;;;8.70;100.00;100335.56;5048620;57;1139018;-73
2021/12/30 22:46:41;;;;;;;8.97;7.17;;;;;;;8.73;100.00;100344.54;5052239;57;1139411;-78
2021/12/30 22:51:47;;;;;;;7.53;6.73;;;;;;;8.77;100.00;100342.53;5058246;57;1139536;-78